Time;durP1;ratioP1;P1;durP2;ratioP2;P2;SDS_P1;SDS_P2;PMS_P1;PMS_P2;Temp;Humidity;BMP_temperature;BMP_pressure;BME280_temperature;BME280_humidity;BME280_pressure;Samples;Min_cycle;Max_cycle;Signal;HPM_P1;HPM_P2
2022/05/18 00:00:23;;;;;;;4.10;3.70;;;;;;;16.46;74.78;96104.13;5021389;28;20115;-61
2022/05/18 00:02:49;;;;;;;7.53;4.32;;;;;;;16.49;74.54;96101.16;5019151;28;20091;-60
2022/05/18 00:05:15;;;;;;;5.03;3.40;;;;;;;16.45;75.20;96098.00;5021202;28;20527;-60
2022/05/18 00:07:41;;;;;;;5.90;3.95;;;;;;;16.43;74.99;96107.13;5021070;28;20066;-61
2022/05/18 00:10:07;;;;;;;4.18;3.80;;;;;;;16.41;75.24;96101.16;5020792;28;20030;-60
2022/05/18 00:12:33;;;;;;;7.05;4.28;;;;;;;16.43;75.25;96107.13;5012691;28;20548;-60
2022/05/18 00:14:58;;;;;;;4.85;3.45;;;;;;;16.40;75.08;96104.81;5019567;28;20037;-61
2022/05/18 00:17:23;;;;;;;6.50;4.03;;;;;;;16.32;75.54;96101.16;5024185;28;20025;-60
2022/05/18 00:19:49;;;;;;;4.63;3.60;;;;;;;16.33;75.61;96102.84;5023923;28;20038;-60
2022/05/18 00:22:15;;;;;;;9.15;3.50;;;;;;;16.31;76.37;96104.84;5021421;28;20022;-61
2022/05/18 00:24:40;;;;;;;5.15;3.78;;;;;;;16.26;75.42;96108.97;5020614;28;20124;-60
2022/05/18 00:27:05;;;;;;;7.47;3.63;;;;;;;16.21;76.91;96116.63;5021025;28;20305;-61
2022/05/18 00:29:32;;;;;;;5.88;3.83;;;;;;;16.20;75.71;96121.09;5017020;28;20033;-60
2022/05/18 00:31:58;;;;;;;3.90;3.50;;;;;;;16.14;76.05;96106.69;5021965;28;20025;-60
2022/05/18 00:34:23;;;;;;;3.75;3.30;;;;;;;16.13;76.33;96112.16;5022647;28;20492;-61
2022/05/18 00:36:49;;;;;;;3.80;3.38;;;;;;;16.09;76.31;96108.97;5017607;28;20088;-60
2022/05/18 00:39:14;;;;;;;7.40;4.15;;;;;;;16.07;77.48;96108.31;5022327;28;20037;-60
2022/05/18 00:41:40;;;;;;;4.97;4.00;;;;;;;16.04;77.03;96111.31;5021019;28;20137;-60
2022/05/18 00:44:06;;;;;;;6.32;4.00;;;;;;;16.03;77.18;96109.66;5020819;28;20102;-60
2022/05/18 00:46:32;;;;;;;6.22;5.07;;;;;;;16.00;76.75;96107.34;5018251;28;20044;-60
2022/05/18 00:48:57;;;;;;;4.43;4.00;;;;;;;16.00;76.67;96105.50;5022258;28;20552;-60
2022/05/18 00:51:38;;;;;;;5.57;4.22;;;;;;;15.98;76.41;96110.13;5020222;28;20112;-61
2022/05/18 00:54:11;;;;;;;4.00;3.28;;;;;;;15.95;76.80;96107.81;5015459;28;20032;-60
2022/05/18 00:56:47;;;;;;;4.55;3.72;;;;;;;15.92;76.90;96108.16;5024882;28;20038;-60
2022/05/18 00:59:18;;;;;;;7.35;3.70;;;;;;;15.91;76.45;96106.50;5023202;28;20062;-60
2022/05/18 01:01:44;;;;;;;8.98;3.88;;;;;;;15.87;75.88;96105.13;5025586;28;20115;-60
2022/05/18 01:04:13;;;;;;;4.65;3.17;;;;;;;15.88;75.59;96112.09;5021847;28;20083;-61
2022/05/18 01:06:46;;;;;;;5.07;3.75;;;;;;;15.85;75.69;96110.59;5020981;28;20052;-61
2022/05/18 01:09:20;;;;;;;5.18;3.30;;;;;;;15.85;75.86;96107.13;5019704;28;20113;-61
2022/05/18 01:11:45;;;;;;;4.47;3.10;;;;;;;15.79;76.11;96115.72;5015539;28;20033;-60
2022/05/18 01:14:17;;;;;;;5.45;3.05;;;;;;;15.76;76.23;96111.59;5013647;28;20025;-60
2022/05/18 01:16:43;;;;;;;4.43;3.28;;;;;;;15.70;76.38;96115.72;5020926;28;20101;-61
2022/05/18 01:19:19;;;;;;;4.07;3.72;;;;;;;15.66;76.77;96117.06;5022075;28;20105;-60
2022/05/18 01:21:53;;;;;;;4.05;3.30;;;;;;;15.59;76.16;96113.41;5021981;28;20032;-60
2022/05/18 01:24:32;;;;;;;3.85;3.03;;;;;;;15.55;75.49;96120.00;5019553;28;20040;-60
2022/05/18 01:27:00;;;;;;;3.78;2.92;;;;;;;15.51;76.05;96114.22;5012211;28;20034;-61
2022/05/18 01:29:27;;;;;;;3.67;3.20;;;;;;;15.46;76.28;96111.19;5017210;28;20095;-61
2022/05/18 01:32:01;;;;;;;3.35;3.10;;;;;;;15.44;75.95;96118.50;5019023;28;20048;-60
2022/05/18 01:34:31;;;;;;;4.30;3.10;;;;;;;15.41;76.84;96126.78;5018808;28;20084;-60
2022/05/18 01:36:57;;;;;;;3.30;3.00;;;;;;;15.34;76.26;96123.94;5017253;28;20979;-60
2022/05/18 01:39:27;;;;;;;4.60;3.50;;;;;;;15.32;76.56;96118.81;5019222;28;20114;-60
2022/05/18 01:42:06;;;;;;;4.80;3.05;;;;;;;15.32;75.85;96124.13;5017854;28;20025;-60
2022/05/18 01:44:37;;;;;;;5.82;3.50;;;;;;;15.31;76.35;96125.09;5015638;28;20030;-60
2022/05/18 01:47:03;;;;;;;6.43;3.13;;;;;;;15.24;76.35;96120.59;5020534;28;20025;-60
2022/05/18 01:49:29;;;;;;;6.57;3.30;;;;;;;15.23;75.95;96130.38;5021351;28;20420;-60
2022/05/18 01:51:57;;;;;;;5.28;3.45;;;;;;;15.15;76.14;96130.34;5020346;28;20034;-60
2022/05/18 01:54:22;;;;;;;3.85;3.33;;;;;;;15.17;76.15;96131.84;5012588;28;20039;-60
2022/05/18 01:56:48;;;;;;;4.97;3.70;;;;;;;15.15;76.34;96130.34;5021124;28;20018;-60
2022/05/18 01:59:13;;;;;;;3.40;2.95;;;;;;;15.14;76.06;96131.34;5013429;28;20472;-60
2022/05/18 02:01:39;;;;;;;6.78;3.30;;;;;;;15.12;76.14;96136.78;5020478;28;20030;-60
2022/05/18 02:04:05;;;;;;;3.80;3.45;;;;;;;15.09;76.49;96138.94;5021256;28;20143;-61
2022/05/18 02:06:34;;;;;;;8.27;4.47;;;;;;;15.04;76.89;96137.59;5009994;28;20164;-60
2022/05/18 02:09:01;;;;;;;7.28;3.15;;;;;;;15.00;76.27;96140.72;5019856;28;20022;-61
2022/05/18 02:11:26;;;;;;;3.80;3.25;;;;;;;14.94;77.36;96136.06;5012112;28;20083;-60
2022/05/18 02:13:52;;;;;;;5.25;3.60;;;;;;;14.89;77.17;96134.69;5020677;28;20429;-60
2022/05/18 02:16:19;;;;;;;4.75;2.97;;;;;;;14.85;77.79;96138.66;5016987;28;20044;-60
2022/05/18 02:18:44;;;;;;;6.85;3.10;;;;;;;14.82;77.82;96132.88;5021623;28;20022;-60
2022/05/18 02:21:11;;;;;;;3.38;3.10;;;;;;;14.85;77.15;96136.00;5026599;28;20020;-60
2022/05/18 02:23:38;;;;;;;4.20;3.58;;;;;;;14.86;77.04;96135.03;5025623;28;20033;-60
2022/05/18 02:26:08;;;;;;;6.03;3.03;;;;;;;14.80;76.82;96133.00;5015467;28;20100;-60
2022/05/18 02:28:34;;;;;;;6.43;3.22;;;;;;;14.78;76.69;96131.50;5009984;28;20105;-60
2022/05/18 02:31:00;;;;;;;2.92;2.72;;;;;;;14.79;76.91;96141.09;5027123;28;20179;-60
2022/05/18 02:33:25;;;;;;;3.88;3.22;;;;;;;14.80;76.79;96134.81;5029833;28;20131;-60
2022/05/18 02:35:50;;;;;;;3.30;3.05;;;;;;;14.74;76.32;96136.28;5029769;28;20030;-60
2022/05/18 02:38:16;;;;;;;8.10;3.45;;;;;;;14.70;77.82;96132.25;5029743;28;20029;-59
2022/05/18 02:40:41;;;;;;;6.25;3.00;;;;;;;14.68;76.67;96132.41;5027351;28;20378;-60
2022/05/18 02:43:07;;;;;;;3.92;3.13;;;;;;;14.67;76.66;96133.41;5017260;28;20125;-61
2022/05/18 02:45:32;;;;;;;4.28;3.00;;;;;;;14.60;77.03;96130.53;5029902;28;20034;-60
2022/05/18 02:47:57;;;;;;;4.00;3.70;;;;;;;14.61;77.24;96136.69;5033634;28;20021;-60
2022/05/18 02:50:23;;;;;;;4.05;3.08;;;;;;;14.57;77.24;96144.09;5033259;28;20112;-60
2022/05/18 02:52:48;;;;;;;5.20;3.28;;;;;;;14.59;76.43;96143.97;5033481;28;20029;-60
2022/05/18 02:57:58;;;;;;;3.47;3.10;;;;;;;14.49;76.68;96144.06;5033320;28;20068;-60
2022/05/18 03:00:24;;;;;;;5.45;2.85;;;;;;;14.47;78.00;96138.91;5033158;28;20068;-60
2022/05/18 03:02:49;;;;;;;6.28;3.60;;;;;;;14.40;78.08;96142.31;5016814;28;20105;-60
2022/05/18 03:05:15;;;;;;;4.68;2.90;;;;;;;14.38;77.23;96145.16;5013120;28;20033;-60
2022/05/18 03:07:40;;;;;;;3.25;2.65;;;;;;;14.33;75.72;96142.09;5019171;28;20509;-60
2022/05/18 03:10:06;;;;;;;3.35;2.90;;;;;;;14.31;75.47;96138.78;5022144;28;20022;-60
2022/05/18 03:12:31;;;;;;;7.68;3.28;;;;;;;14.26;76.14;96141.91;5013307;28;20022;-60
2022/05/18 03:14:57;;;;;;;3.45;2.95;;;;;;;14.14;77.71;96140.50;5020968;28;20086;-60
2022/05/18 03:17:22;;;;;;;4.70;3.05;;;;;;;14.05;78.51;96136.94;5032968;28;20017;-60
2022/05/18 03:19:47;;;;;;;4.60;3.10;;;;;;;14.05;78.27;96136.94;5033070;28;20095;-60
2022/05/18 03:24:56;;;;;;;4.90;3.47;;;;;;;13.95;78.48;96138.84;5033285;28;20157;-60
2022/05/18 03:27:22;;;;;;;4.93;3.05;;;;;;;13.94;78.63;96135.34;5032803;28;20121;-60
2022/05/18 03:29:47;;;;;;;3.97;3.15;;;;;;;13.93;78.94;96141.63;5024246;28;20032;-60
2022/05/18 03:32:13;;;;;;;3.55;3.25;;;;;;;13.89;79.55;96140.28;5024710;28;20401;-60
2022/05/18 03:34:38;;;;;;;5.65;3.38;;;;;;;13.90;79.64;96134.81;5028957;28;20029;-60
2022/05/18 03:37:03;;;;;;;3.83;3.20;;;;;;;13.84;80.59;96143.38;5031438;28;20041;-60
2022/05/18 03:39:29;;;;;;;11.02;3.40;;;;;;;13.77;80.16;96142.31;5020660;28;20034;-60
2022/05/18 03:41:57;;;;;;;5.30;3.10;;;;;;;13.76;80.53;96143.31;5018026;28;20389;-60
2022/05/18 03:44:22;;;;;;;5.13;2.92;;;;;;;13.79;79.82;96147.44;5023244;28;20042;-62
2022/05/18 03:46:48;;;;;;;5.63;3.15;;;;;;;13.80;79.32;96143.81;5032083;28;20041;-61
2022/05/18 03:49:13;;;;;;;8.68;3.13;;;;;;;13.79;79.45;96147.44;5029628;28;20179;-61
2022/05/18 03:51:38;;;;;;;3.70;3.40;;;;;;;13.77;79.56;96150.25;5028686;28;20473;-61
2022/05/18 03:54:06;;;;;;;5.72;2.90;;;;;;;13.73;79.83;96155.00;5029752;28;20112;-61
2022/05/18 03:56:32;;;;;;;4.35;3.30;;;;;;;13.72;79.75;96153.34;5024461;28;20594;-62
2022/05/18 03:58:59;;;;;;;4.22;3.78;;;;;;;13.71;80.11;96150.88;5031362;28;20112;-62
2022/05/18 04:01:26;;;;;;;3.67;3.38;;;;;;;13.66;80.22;96159.25;5028117;28;20386;-62
2022/05/18 04:03:52;;;;;;;9.38;3.38;;;;;;;13.66;81.04;96156.59;5012425;28;20026;-61
2022/05/18 04:06:18;;;;;;;3.78;2.95;;;;;;;13.69;80.70;96158.94;5015105;28;20025;-62
2022/05/18 04:08:44;;;;;;;4.43;2.58;;;;;;;13.71;80.19;96159.63;5032001;28;20034;-61
2022/05/18 04:11:11;;;;;;;6.72;3.17;;;;;;;13.71;80.00;96156.16;5031842;28;20044;-61
2022/05/18 04:13:36;;;;;;;5.30;3.33;;;;;;;13.70;79.74;96149.19;5030869;28;20036;-62
2022/05/18 04:16:02;;;;;;;3.67;3.08;;;;;;;13.68;80.11;96156.44;5025620;28;20105;-61
2022/05/18 04:18:28;;;;;;;4.90;2.85;;;;;;;13.72;79.84;96155.19;5016864;28;20118;-60
2022/05/18 04:20:55;;;;;;;4.05;3.25;;;;;;;13.80;79.43;96154.41;5012149;28;20459;-60
2022/05/18 04:23:20;;;;;;;3.47;3.15;;;;;;;13.79;80.04;96158.03;5014230;28;20551;-61
2022/05/18 04:25:46;;;;;;;3.70;3.40;;;;;;;13.71;79.88;96166.75;5031400;28;20030;-61
2022/05/18 04:28:14;;;;;;;6.43;3.30;;;;;;;13.72;79.55;96173.69;5031115;28;20129;-60
2022/05/18 04:30:43;;;;;;;4.10;3.13;;;;;;;13.72;79.92;96174.53;5031490;28;20033;-60
2022/05/18 04:33:11;;;;;;;3.90;2.80;;;;;;;13.72;79.31;96173.69;5031600;28;20039;-60
2022/05/18 04:35:36;;;;;;;6.13;3.05;;;;;;;13.75;79.13;96168.91;5031694;28;20025;-61
2022/05/18 04:38:01;;;;;;;5.65;2.92;;;;;;;13.80;79.47;96178.22;5031445;28;20469;-61
2022/05/18 04:40:27;;;;;;;3.47;3.17;;;;;;;13.83;79.85;96175.28;5031024;28;20499;-60
2022/05/18 04:42:52;;;;;;;4.57;2.90;;;;;;;13.86;79.57;96178.44;5031455;28;20109;-60
2022/05/18 04:45:20;;;;;;;8.43;3.58;;;;;;;13.88;79.42;96180.97;5029169;28;20109;-60
2022/05/18 04:47:46;;;;;;;3.17;2.67;;;;;;;13.88;79.28;96175.66;5011731;28;20026;-60
2022/05/18 04:50:11;;;;;;;5.25;2.80;;;;;;;13.89;79.37;96178.16;5011397;28;20504;-60
2022/05/18 04:52:37;;;;;;;8.07;3.40;;;;;;;13.91;79.33;96183.31;5011620;28;20033;-60
2022/05/18 04:55:04;;;;;;;4.57;2.88;;;;;;;13.93;79.19;96185.81;5011479;28;20073;-60
2022/05/18 04:57:29;;;;;;;3.45;2.63;;;;;;;13.97;79.21;96182.69;5030566;28;20452;-60
2022/05/18 04:59:54;;;;;;;3.40;3.10;;;;;;;14.01;78.58;96184.03;5030963;28;20081;-61
2022/05/18 05:02:20;;;;;;;6.57;2.92;;;;;;;14.03;78.70;96184.72;5030278;28;20566;-61
2022/05/18 05:04:45;;;;;;;7.72;3.30;;;;;;;14.05;79.12;96184.59;5031012;28;20112;-61
2022/05/18 05:07:11;;;;;;;3.63;3.22;;;;;;;14.09;79.04;96187.78;5029350;28;20041;-61
2022/05/18 05:09:37;;;;;;;3.20;2.90;;;;;;;14.12;79.06;96187.47;5031195;28;20036;-61
2022/05/18 05:12:04;;;;;;;4.88;3.03;;;;;;;14.10;78.79;96184.13;5030864;28;20025;-60
2022/05/18 05:14:29;;;;;;;4.85;3.10;;;;;;;14.11;78.48;96188.44;5030910;28;20099;-61
2022/05/18 05:16:55;;;;;;;5.88;3.05;;;;;;;14.32;77.51;96188.97;5030691;28;20065;-61
2022/05/18 05:19:20;;;;;;;16.70;4.47;;;;;;;14.45;76.81;96195.66;5030619;28;20104;-60
2022/05/18 05:21:46;;;;;;;4.80;3.00;;;;;;;14.55;76.40;96200.88;5030697;28;20233;-60
2022/05/18 05:24:13;;;;;;;6.13;3.30;;;;;;;14.53;76.78;96194.91;5030730;28;20472;-61
2022/05/18 05:26:39;;;;;;;3.88;2.95;;;;;;;14.57;75.89;96199.75;5030937;28;20067;-61
2022/05/18 05:29:05;;;;;;;5.65;3.30;;;;;;;14.60;77.05;96202.09;5030432;28;20096;-60
2022/05/18 05:31:31;;;;;;;4.28;3.75;;;;;;;14.68;76.90;96209.25;5029490;28;20111;-59
2022/05/18 05:33:57;;;;;;;4.30;3.05;;;;;;;14.74;76.73;96197.25;5029378;28;20029;-60
2022/05/18 05:36:23;;;;;;;3.55;3.05;;;;;;;14.85;76.87;96204.94;5017583;28;20068;-61
2022/05/18 05:38:49;;;;;;;3.45;2.63;;;;;;;14.92;76.91;96202.47;5018211;28;20021;-61
2022/05/18 05:41:15;;;;;;;3.95;3.20;;;;;;;15.09;76.71;96198.09;5030301;28;20021;-60
2022/05/18 05:43:41;;;;;;;3.03;2.72;;;;;;;15.24;76.69;96200.16;5014481;28;20462;-61
2022/05/18 05:46:10;;;;;;;6.35;3.13;;;;;;;15.44;74.97;96198.94;5009792;28;20045;-61
2022/05/18 05:48:36;;;;;;;6.78;3.40;;;;;;;15.59;74.00;96199.16;5018249;28;20124;-60
2022/05/18 05:51:03;;;;;;;6.13;3.42;;;;;;;15.76;74.14;96205.31;5028992;28;20029;-60
2022/05/18 05:53:29;;;;;;;6.00;3.28;;;;;;;15.95;74.10;96202.59;5027061;28;20041;-60
2022/05/18 05:55:55;;;;;;;3.40;3.10;;;;;;;16.11;73.11;96207.09;5028725;28;20022;-61
2022/05/18 05:58:22;;;;;;;4.80;2.85;;;;;;;16.24;72.84;96195.97;5029861;28;20038;-61
2022/05/18 06:00:48;;;;;;;13.73;3.05;;;;;;;16.41;71.31;96197.66;5030051;28;20045;-60
2022/05/18 06:03:14;;;;;;;4.38;2.90;;;;;;;16.55;71.26;96198.81;5024871;28;20033;-60
2022/05/18 06:05:40;;;;;;;6.57;3.00;;;;;;;16.71;70.76;96197.94;5010225;28;20116;-61
2022/05/18 06:08:06;;;;;;;5.97;2.78;;;;;;;16.92;70.25;96195.78;5009521;28;20172;-61
2022/05/18 06:10:32;;;;;;;3.85;2.90;;;;;;;17.18;68.59;96199.06;5014529;28;20036;-61
2022/05/18 06:12:57;;;;;;;3.20;2.85;;;;;;;17.42;67.98;96193.81;5028575;28;20029;-61
2022/05/18 06:15:23;;;;;;;3.45;2.67;;;;;;;17.69;66.78;96192.53;5029330;28;20026;-61
2022/05/18 06:17:48;;;;;;;3.47;2.60;;;;;;;17.97;66.72;96196.53;5029237;28;20025;-61
2022/05/18 06:20:14;;;;;;;4.10;2.72;;;;;;;18.12;65.26;96183.31;5029777;28;20445;-61
2022/05/18 06:22:39;;;;;;;5.53;3.20;;;;;;;18.35;63.33;96185.13;5029313;28;20056;-61
2022/05/18 06:25:05;;;;;;;2.85;2.65;;;;;;;18.64;62.70;96175.56;5028857;28;20032;-61
2022/05/18 06:27:30;;;;;;;6.88;2.60;;;;;;;18.97;61.08;96183.25;5029667;28;20508;-61
2022/05/18 06:29:56;;;;;;;5.13;2.40;;;;;;;19.37;60.85;96175.81;5029724;28;20057;-59
2022/05/18 06:32:21;;;;;;;4.75;2.53;;;;;;;19.79;58.78;96183.31;5029693;28;20069;-60
2022/05/18 06:34:48;;;;;;;4.38;2.53;;;;;;;20.21;57.33;96173.69;5016512;28;20409;-60
2022/05/18 06:37:14;;;;;;;2.47;2.13;;;;;;;20.56;55.98;96175.66;5010143;28;20026;-61
2022/05/18 06:39:40;;;;;;;4.57;2.35;;;;;;;20.88;53.93;96176.13;5009907;28;20033;-60
2022/05/18 06:42:05;;;;;;;4.22;3.08;;;;;;;21.20;53.38;96179.19;5009625;28;20080;-60
2022/05/18 06:44:31;;;;;;;7.40;2.25;;;;;;;21.56;52.38;96183.50;5009503;28;20026;-60
2022/05/18 06:47:00;;;;;;;5.57;2.75;;;;;;;21.85;51.93;96176.22;5009969;28;20105;-60
2022/05/18 06:49:27;;;;;;;4.50;2.30;;;;;;;22.16;52.64;96176.69;5009895;28;20026;-60
2022/05/18 06:51:53;;;;;;;2.75;2.10;;;;;;;22.58;50.57;96174.72;5009678;28;20029;-62
2022/05/18 06:54:19;;;;;;;2.95;2.13;;;;;;;22.68;49.91;96176.16;5025398;28;20026;-61
2022/05/18 06:56:45;;;;;;;5.10;2.17;;;;;;;22.98;49.31;96179.22;5030683;28;20429;-61
2022/05/18 06:59:12;;;;;;;2.95;1.77;;;;;;;23.26;48.51;96175.50;5029439;28;20057;-61
2022/05/18 07:01:38;;;;;;;5.55;2.80;;;;;;;23.18;47.39;96173.81;5029599;28;20049;-61
2022/05/18 07:04:04;;;;;;;2.47;1.92;;;;;;;23.27;47.42;96173.63;5029339;28;20172;-61
2022/05/18 07:06:35;;;;;;;2.72;2.10;;;;;;;23.48;46.66;96166.31;5029598;28;20448;-61
2022/05/18 07:09:04;;;;;;;2.95;2.08;;;;;;;23.49;46.51;96167.97;5029373;28;20029;-61
2022/05/18 07:11:29;;;;;;;4.25;2.17;;;;;;;23.36;46.97;96179.59;5029401;28;20026;-60
2022/05/18 07:13:56;;;;;;;2.78;2.03;;;;;;;23.70;46.51;96178.44;5029468;28;20021;-61
2022/05/18 07:16:23;;;;;;;4.30;2.47;;;;;;;23.98;44.71;96181.81;5029458;28;20044;-60
2022/05/18 07:18:49;;;;;;;2.55;2.30;;;;;;;24.29;43.24;96172.97;5029679;28;20029;-61
2022/05/18 07:21:15;;;;;;;3.28;2.53;;;;;;;24.27;44.30;96179.59;5029134;28;20132;-61
2022/05/18 07:23:41;;;;;;;4.50;2.50;;;;;;;24.45;44.02;96176.19;5029322;28;20044;-61
2022/05/18 07:26:07;;;;;;;2.22;2.03;;;;;;;24.46;43.50;96167.06;5029317;28;20603;-61
2022/05/18 07:28:33;;;;;;;4.75;2.58;;;;;;;24.43;43.62;96164.81;5030183;28;20029;-60
2022/05/18 07:30:58;;;;;;;5.13;2.80;;;;;;;24.75;43.16;96167.47;5032547;28;20034;-61
2022/05/18 07:33:25;;;;;;;6.43;2.30;;;;;;;24.88;42.86;96172.75;5032820;28;20029;-60
2022/05/18 07:35:52;;;;;;;3.65;2.60;;;;;;;24.79;43.15;96168.69;5033081;28;20091;-60
2022/05/18 07:38:22;;;;;;;5.50;2.53;;;;;;;25.48;42.69;96175.91;5032789;28;20459;-61
2022/05/18 07:40:48;;;;;;;5.15;2.65;;;;;;;25.66;41.54;96174.25;5032760;28;20036;-61
2022/05/18 07:43:14;;;;;;;7.70;2.95;;;;;;;25.90;40.26;96172.47;5032642;28;20033;-60
2022/05/18 07:45:41;;;;;;;4.55;2.70;;;;;;;25.64;40.81;96166.38;5032549;28;20044;-61
2022/05/18 07:48:07;;;;;;;3.58;2.90;;;;;;;25.24;41.75;96167.63;5032443;28;20029;-61
2022/05/18 07:50:33;;;;;;;4.28;3.10;;;;;;;25.29;42.23;96173.19;5032383;28;20029;-60
2022/05/18 07:52:59;;;;;;;3.75;3.03;;;;;;;25.49;41.76;96171.31;5032463;28;20791;-61
2022/05/18 07:55:26;;;;;;;5.72;3.10;;;;;;;25.44;41.95;96167.41;5032474;28;20032;-60
2022/05/18 07:57:53;;;;;;;5.63;2.85;;;;;;;25.82;41.03;96162.00;5032654;28;20022;-61
2022/05/18 08:00:21;;;;;;;4.88;2.72;;;;;;;26.29;39.18;96169.47;5031965;28;20060;-61
2022/05/18 08:02:46;;;;;;;4.18;2.67;;;;;;;26.23;38.51;96167.69;5032308;28;20033;-60
2022/05/18 08:05:12;;;;;;;4.57;2.80;;;;;;;26.30;39.97;96171.94;5032260;28;20020;-61
2022/05/18 08:07:39;;;;;;;4.07;2.92;;;;;;;26.44;38.95;96166.38;5032167;28;20065;-61
2022/05/18 08:15:33;;;;;;;3.00;2.63;;;;;;;26.93;38.77;96170.78;5032221;28;20159;-61
2022/05/18 08:17:58;;;;;;;3.92;2.35;;;;;;;27.63;35.87;96157.44;5031736;28;20049;-60
2022/05/18 08:20:24;;;;;;;3.28;2.45;;;;;;;27.52;36.93;96167.22;5032096;28;20485;-61
2022/05/18 08:22:51;;;;;;;3.58;2.50;;;;;;;27.94;34.36;96158.84;5031785;28;20029;-60
2022/05/18 08:25:17;;;;;;;8.05;2.78;;;;;;;27.99;35.64;96158.97;5031593;28;20034;-61
2022/05/18 08:27:45;;;;;;;3.67;2.50;;;;;;;28.59;34.32;96158.66;5031999;28;20041;-61
2022/05/18 08:30:14;;;;;;;5.78;2.55;;;;;;;28.79;33.35;96154.66;5031510;28;20483;-60
2022/05/18 08:32:40;;;;;;;2.63;2.33;;;;;;;28.71;34.13;96156.69;5031768;28;20036;-61
2022/05/18 08:35:08;;;;;;;3.90;2.38;;;;;;;28.65;33.87;96159.59;5031710;28;20034;-61
2022/05/18 08:37:42;;;;;;;3.35;2.60;;;;;;;28.87;32.89;96163.22;5031537;28;20036;-61
2022/05/18 08:40:15;;;;;;;4.30;2.33;;;;;;;28.35;34.81;96155.28;5030960;28;20034;-61
2022/05/18 08:43:08;;;;;;;6.47;2.33;;;;;;;29.19;32.58;96150.94;5031620;28;20163;-61
2022/05/18 08:45:42;;;;;;;7.70;2.58;;;;;;;28.97;33.65;96153.59;5031501;28;20537;-61
2022/05/18 08:48:21;;;;;;;5.43;2.40;;;;;;;28.95;33.79;96147.59;5031194;28;20540;-61
2022/05/18 08:50:47;;;;;;;3.70;2.40;;;;;;;29.21;32.00;96147.94;5031386;28;20532;-60
2022/05/18 08:53:31;;;;;;;7.70;2.58;;;;;;;28.88;33.68;96147.75;5031207;28;20523;-60
2022/05/18 08:56:17;;;;;;;2.97;2.20;;;;;;;29.18;32.72;96138.44;5031715;28;20390;-61
2022/05/18 08:58:48;;;;;;;5.80;2.72;;;;;;;29.44;32.96;96136.91;5031291;28;20108;-60
2022/05/18 09:01:34;;;;;;;6.55;2.50;;;;;;;29.59;32.76;96136.25;5031029;28;20048;-60
2022/05/18 09:04:17;;;;;;;17.42;2.75;;;;;;;29.60;32.79;96137.09;5031481;28;20052;-61
2022/05/18 09:06:50;;;;;;;7.53;2.72;;;;;;;29.14;34.13;96132.69;5030919;28;20037;-61
2022/05/18 09:12:42;;;;;;;2.78;2.40;;;;;;;29.78;32.12;96127.81;5031093;28;20405;-60
2022/05/18 09:15:13;;;;;;;7.68;2.67;;;;;;;29.71;31.41;96135.31;5030862;28;20033;-60
2022/05/18 09:18:04;;;;;;;5.72;3.00;;;;;;;29.30;32.16;96138.34;5030905;28;20090;-61
2022/05/18 09:20:41;;;;;;;2.90;2.28;;;;;;;28.87;32.68;96129.88;5030953;28;20072;-60
2022/05/18 09:23:41;;;;;;;4.63;2.20;;;;;;;29.29;32.21;96134.78;5030362;28;20079;-60
2022/05/18 09:26:39;;;;;;;5.95;1.92;;;;;;;29.12;33.88;96134.84;5010998;28;20025;-60
2022/05/18 09:29:22;;;;;;;3.20;2.22;;;;;;;29.51;33.09;96139.44;5010876;28;20119;-60
2022/05/18 09:32:11;;;;;;;3.20;2.20;;;;;;;29.78;32.86;96135.94;5010933;28;20052;-60
2022/05/18 09:34:49;;;;;;;4.57;2.42;;;;;;;30.26;31.34;96144.34;5010830;28;20025;-60
2022/05/18 09:37:26;;;;;;;2.50;2.10;;;;;;;30.46;31.06;96137.44;5010765;28;20026;-60
2022/05/18 09:39:59;;;;;;;5.00;2.20;;;;;;;30.28;31.31;96144.91;5010890;28;20030;-60
2022/05/18 09:42:29;;;;;;;2.78;2.22;;;;;;;30.06;31.04;96133.28;5010422;28;20032;-60
2022/05/18 09:45:12;;;;;;;2.42;2.22;;;;;;;29.51;32.19;96133.19;5009473;28;20109;-60
2022/05/18 09:47:49;;;;;;;6.00;2.03;;;;;;;29.34;32.09;96130.50;5010760;28;20038;-60
2022/05/18 09:50:14;;;;;;;3.88;2.38;;;;;;;29.45;32.80;96129.59;5010473;28;20053;-60
2022/05/18 09:52:44;;;;;;;3.65;2.45;;;;;;;30.53;31.41;96123.66;5009576;28;20058;-60
2022/05/18 09:55:14;;;;;;;5.80;2.15;;;;;;;30.70;31.56;96124.34;5010472;28;20018;-60
2022/05/18 09:58:08;;;;;;;4.15;2.08;;;;;;;30.76;31.78;96124.41;5010587;28;20030;-61
2022/05/18 10:00:35;;;;;;;4.20;2.50;;;;;;;30.96;31.09;96113.66;5010402;28;20140;-60
2022/05/18 10:08:54;;;;;;;4.23;2.50;;;;;;;30.99;32.01;96096.00;4989518;28;20042;-60
2022/05/18 10:11:24;;;;;;;4.40;2.38;;;;;;;31.14;31.81;96097.97;5009925;28;20038;-60
2022/05/18 10:13:54;;;;;;;4.28;2.20;;;;;;;31.31;31.58;96100.56;5010398;28;20100;-60
2022/05/18 10:16:31;;;;;;;4.40;2.20;;;;;;;31.27;31.25;96099.44;5010133;28;20029;-61
2022/05/18 10:18:59;;;;;;;2.72;2.13;;;;;;;31.42;30.12;96095.97;5010427;28;20083;-61
2022/05/18 10:21:52;;;;;;;4.57;2.45;;;;;;;31.15;30.48;96096.91;5010042;28;20200;-59
2022/05/18 10:24:35;;;;;;;6.72;2.15;;;;;;;30.99;29.53;96085.13;5020206;28;20032;-61
2022/05/18 10:27:09;;;;;;;2.83;2.20;;;;;;;31.94;28.47;96091.50;5029824;28;20025;-61
2022/05/18 10:29:34;;;;;;;;;;;;;;;31.03;29.06;96083.50;5030524;28;20045;-60
2022/05/18 10:32:08;;;;;;;3.57;2.63;;;;;;;30.92;29.83;96082.63;5029742;28;20082;-60
2022/05/18 10:34:46;;;;;;;2.75;1.85;;;;;;;31.55;29.35;96081.06;5030012;28;20037;-60
2022/05/18 10:37:13;;;;;;;2.60;2.08;;;;;;;31.78;28.93;96078.97;5029855;28;20068;-61
2022/05/18 10:39:48;;;;;;;3.60;2.10;;;;;;;31.64;29.78;96076.72;5028829;28;20057;-60
2022/05/18 10:42:42;;;;;;;2.13;1.92;;;;;;;31.93;28.39;96078.97;5029669;28;20489;-59
2022/05/18 10:45:26;;;;;;;3.30;1.90;;;;;;;31.77;28.15;96080.88;5029963;28;20626;-61
2022/05/18 10:48:12;;;;;;;4.87;2.87;;;;;;;31.75;27.92;96076.75;5029683;28;20017;-61
2022/05/18 10:50:39;;;;;;;6.05;2.10;;;;;;;30.93;27.54;96083.47;5029119;28;20045;-59
2022/05/18 10:53:13;;;;;;;3.83;2.08;;;;;;;30.82;28.78;96074.44;5029433;28;20439;-60
2022/05/18 10:55:57;;;;;;;2.90;2.13;;;;;;;31.33;29.14;96060.31;5029791;28;20450;-60
2022/05/18 10:58:28;;;;;;;3.13;2.33;;;;;;;31.11;28.28;96063.16;5029515;28;20032;-60
2022/05/18 11:01:11;;;;;;;4.05;2.10;;;;;;;32.18;27.11;96063.78;5029455;28;20417;-60
2022/05/18 11:04:31;;;;;;;3.78;2.75;;;;;;;31.96;28.82;96058.59;5030484;28;20026;-60
2022/05/18 11:06:56;;;;;;;4.47;2.60;;;;;;;32.23;29.44;96052.06;4972172;28;20740;-60
2022/05/18 11:09:28;;;;;;;5.22;2.50;;;;;;;32.81;28.81;96059.91;5020173;28;20037;-60
2022/05/18 11:12:06;;;;;;;1.88;1.77;;;;;;;32.17;29.44;96051.25;5033022;28;20588;-60
2022/05/18 11:14:47;;;;;;;4.32;2.38;;;;;;;31.70;30.27;96053.88;5033112;28;20037;-60
2022/05/18 11:17:15;;;;;;;6.15;2.33;;;;;;;31.73;29.45;96050.63;5033364;28;20033;-60
2022/05/18 11:19:46;;;;;;;5.70;2.50;;;;;;;31.47;30.76;96046.19;5033048;28;20088;-60
2022/05/18 11:22:32;;;;;;;2.47;2.22;;;;;;;32.00;29.88;96046.88;5033103;28;20040;-60
2022/05/18 11:25:22;;;;;;;2.55;2.13;;;;;;;32.27;29.37;96044.97;5016067;28;20057;-60
2022/05/18 11:28:03;;;;;;;4.13;2.20;;;;;;;32.18;28.88;96044.72;5013218;28;20472;-59
2022/05/18 11:30:57;;;;;;;5.22;2.80;;;;;;;31.55;29.63;96045.69;5012828;28;20057;-60
2022/05/18 11:33:42;;;;;;;4.43;2.33;;;;;;;31.50;31.49;96035.59;4990929;28;20045;-60
2022/05/18 11:36:07;;;;;;;3.38;2.60;;;;;;;31.49;31.26;96030.44;5013056;28;20033;-59
2022/05/18 11:39:02;;;;;;;5.13;2.10;;;;;;;31.90;30.27;96037.91;5013044;28;20026;-60
2022/05/18 11:41:49;;;;;;;3.00;2.22;;;;;;;32.09;28.93;96028.13;5012785;28;20352;-60
2022/05/18 11:44:43;;;;;;;3.38;2.30;;;;;;;33.10;27.05;96029.34;5012964;28;20520;-59
2022/05/18 11:47:30;;;;;;;7.25;2.33;;;;;;;32.71;27.68;96028.06;5009454;28;20060;-59
2022/05/18 11:50:06;;;;;;;2.95;2.20;;;;;;;32.01;27.84;96031.34;5012773;28;20489;-60
2022/05/18 11:52:35;;;;;;;3.55;2.15;;;;;;;31.68;29.04;96023.41;5012502;28;20543;-60
2022/05/18 11:55:20;;;;;;;4.40;2.03;;;;;;;31.84;28.32;96028.91;5012703;28;20560;-60
2022/05/18 11:57:50;;;;;;;4.75;2.55;;;;;;;32.95;26.78;96030.22;5012646;28;20528;-60
2022/05/18 12:00:45;;;;;;;3.85;2.08;;;;;;;32.42;27.66;96023.22;5012589;28;20065;-59
2022/05/18 12:03:44;;;;;;;3.65;2.20;;;;;;;32.12;28.04;96022.13;5012511;28;20468;-59
2022/05/18 12:06:19;;;;;;;6.15;2.10;;;;;;;32.38;27.52;96015.84;5012291;28;20026;-60